sensor_id;sensor_type;location;lat;lon;timestamp;temperature;humidity
19397;DHT22;9834;48.076;11.878;2023-05-28T00:00:45;12.00;99.90
19397;DHT22;9834;48.076;11.878;2023-05-28T00:03:13;11.90;99.90
19397;DHT22;9834;48.076;11.878;2023-05-28T00:05:43;11.70;99.90
19397;DHT22;9834;48.076;11.878;2023-05-28T00:08:10;11.60;99.90
19397;DHT22;9834;48.076;11.878;2023-05-28T00:10:39;11.50;99.90
19397;DHT22;9834;48.076;11.878;2023-05-28T00:13:07;11.40;99.90
19397;DHT22;9834;48.076;11.878;2023-05-28T00:15:34;11.30;99.90
19397;DHT22;9834;48.076;11.878;2023-05-28T00:18:03;11.20;99.90
19397;DHT22;9834;48.076;11.878;2023-05-28T00:20:31;11.10;99.90
19397;DHT22;9834;48.076;11.878;2023-05-28T00:22:58;11.00;99.90
19397;DHT22;9834;48.076;11.878;2023-05-28T00:25:26;10.90;99.90
19397;DHT22;9834;48.076;11.878;2023-05-28T00:27:53;10.80;99.90
19397;DHT22;9834;48.076;11.878;2023-05-28T00:30:19;10.70;99.90
19397;DHT22;9834;48.076;11.878;2023-05-28T00:32:49;10.60;99.90
19397;DHT22;9834;48.076;11.878;2023-05-28T00:35:16;10.60;99.90
19397;DHT22;9834;48.076;11.878;2023-05-28T00:37:44;10.50;99.90
19397;DHT22;9834;48.076;11.878;2023-05-28T00:40:12;10.50;99.90
19397;DHT22;9834;48.076;11.878;2023-05-28T00:42:41;10.40;99.90
19397;DHT22;9834;48.076;11.878;2023-05-28T00:45:09;10.30;99.90
19397;DHT22;9834;48.076;11.878;2023-05-28T00:47:37;10.20;99.90
19397;DHT22;9834;48.076;11.878;2023-05-28T00:50:06;10.20;99.90
19397;DHT22;9834;48.076;11.878;2023-05-28T00:52:34;10.10;99.90
19397;DHT22;9834;48.076;11.878;2023-05-28T00:55:06;10.10;99.90
19397;DHT22;9834;48.076;11.878;2023-05-28T00:57:36;10.00;99.90
19397;DHT22;9834;48.076;11.878;2023-05-28T01:00:04;9.90;99.90
19397;DHT22;9834;48.076;11.878;2023-05-28T01:02:31;9.80;99.90
19397;DHT22;9834;48.076;11.878;2023-05-28T01:04:58;9.80;99.90
19397;DHT22;9834;48.076;11.878;2023-05-28T01:07:25;9.70;99.90
19397;DHT22;9834;48.076;11.878;2023-05-28T01:09:53;9.70;99.90
19397;DHT22;9834;48.076;11.878;2023-05-28T01:12:22;9.60;99.90
19397;DHT22;9834;48.076;11.878;2023-05-28T01:14:49;9.60;99.90
19397;DHT22;9834;48.076;11.878;2023-05-28T01:17:16;9.60;99.90
19397;DHT22;9834;48.076;11.878;2023-05-28T01:19:43;9.50;99.90
19397;DHT22;9834;48.076;11.878;2023-05-28T01:22:16;9.50;99.90
19397;DHT22;9834;48.076;11.878;2023-05-28T01:24:48;9.40;99.90
19397;DHT22;9834;48.076;11.878;2023-05-28T01:27:18;9.40;99.90
19397;DHT22;9834;48.076;11.878;2023-05-28T01:29:45;9.40;99.90
19397;DHT22;9834;48.076;11.878;2023-05-28T01:32:12;9.40;99.90
19397;DHT22;9834;48.076;11.878;2023-05-28T01:34:39;9.30;99.90
19397;DHT22;9834;48.076;11.878;2023-05-28T01:37:08;9.30;99.90
19397;DHT22;9834;48.076;11.878;2023-05-28T01:39:41;9.30;99.90
19397;DHT22;9834;48.076;11.878;2023-05-28T01:42:10;9.20;99.90
19397;DHT22;9834;48.076;11.878;2023-05-28T01:44:39;9.20;99.90
19397;DHT22;9834;48.076;11.878;2023-05-28T01:47:07;9.10;99.90
19397;DHT22;9834;48.076;11.878;2023-05-28T01:49:36;9.10;99.90
19397;DHT22;9834;48.076;11.878;2023-05-28T01:52:04;9.10;99.90
19397;DHT22;9834;48.076;11.878;2023-05-28T01:54:31;9.00;99.90
19397;DHT22;9834;48.076;11.878;2023-05-28T01:56:58;8.80;99.90
19397;DHT22;9834;48.076;11.878;2023-05-28T01:59:28;8.90;99.90
19397;DHT22;9834;48.076;11.878;2023-05-28T02:01:55;8.90;99.90
19397;DHT22;9834;48.076;11.878;2023-05-28T02:04:22;8.90;99.90
19397;DHT22;9834;48.076;11.878;2023-05-28T02:06:49;8.90;99.90
19397;DHT22;9834;48.076;11.878;2023-05-28T02:09:16;8.80;99.90
19397;DHT22;9834;48.076;11.878;2023-05-28T02:11:43;8.80;99.90
19397;DHT22;9834;48.076;11.878;2023-05-28T02:14:10;8.70;99.90
19397;DHT22;9834;48.076;11.878;2023-05-28T02:16:41;8.70;99.90
19397;DHT22;9834;48.076;11.878;2023-05-28T02:19:09;8.90;99.90
19397;DHT22;9834;48.076;11.878;2023-05-28T02:21:37;8.60;99.90
19397;DHT22;9834;48.076;11.878;2023-05-28T02:24:04;8.60;99.90
19397;DHT22;9834;48.076;11.878;2023-05-28T02:26:32;8.50;99.90
19397;DHT22;9834;48.076;11.878;2023-05-28T02:28:59;8.50;99.90
19397;DHT22;9834;48.076;11.878;2023-05-28T02:31:26;8.50;99.90
19397;DHT22;9834;48.076;11.878;2023-05-28T02:33:54;8.60;99.90
19397;DHT22;9834;48.076;11.878;2023-05-28T02:36:21;8.40;99.90
19397;DHT22;9834;48.076;11.878;2023-05-28T02:38:49;8.40;99.90
19397;DHT22;9834;48.076;11.878;2023-05-28T02:41:16;8.40;99.90
19397;DHT22;9834;48.076;11.878;2023-05-28T02:43:43;8.30;99.90
19397;DHT22;9834;48.076;11.878;2023-05-28T02:46:10;8.30;99.90
19397;DHT22;9834;48.076;11.878;2023-05-28T02:48:37;8.30;99.90
19397;DHT22;9834;48.076;11.878;2023-05-28T02:51:06;8.40;99.90
19397;DHT22;9834;48.076;11.878;2023-05-28T02:53:33;8.20;99.90
19397;DHT22;9834;48.076;11.878;2023-05-28T02:56:00;8.30;99.90
19397;DHT22;9834;48.076;11.878;2023-05-28T02:58:26;8.20;99.90
19397;DHT22;9834;48.076;11.878;2023-05-28T03:00:56;8.20;99.90
19397;DHT22;9834;48.076;11.878;2023-05-28T03:03:22;8.10;99.90
19397;DHT22;9834;48.076;11.878;2023-05-28T03:05:50;8.10;99.90
19397;DHT22;9834;48.076;11.878;2023-05-28T03:08:18;8.10;99.90
19397;DHT22;9834;48.076;11.878;2023-05-28T03:10:46;8.00;99.90
19397;DHT22;9834;48.076;11.878;2023-05-28T03:13:13;8.00;99.90
19397;DHT22;9834;48.076;11.878;2023-05-28T03:15:39;8.00;99.90
19397;DHT22;9834;48.076;11.878;2023-05-28T03:18:06;8.00;99.90
19397;DHT22;9834;48.076;11.878;2023-05-28T03:20:33;8.00;99.90
19397;DHT22;9834;48.076;11.878;2023-05-28T03:23:00;8.00;99.90
19397;DHT22;9834;48.076;11.878;2023-05-28T03:25:28;7.90;99.90
19397;DHT22;9834;48.076;11.878;2023-05-28T03:27:55;8.00;99.90
19397;DHT22;9834;48.076;11.878;2023-05-28T03:30:22;7.90;99.90
19397;DHT22;9834;48.076;11.878;2023-05-28T03:32:50;8.00;99.90
19397;DHT22;9834;48.076;11.878;2023-05-28T03:35:17;8.00;99.90
19397;DHT22;9834;48.076;11.878;2023-05-28T03:37:44;7.90;99.90
19397;DHT22;9834;48.076;11.878;2023-05-28T03:40:11;7.90;99.90
19397;DHT22;9834;48.076;11.878;2023-05-28T03:42:40;7.90;99.90
19397;DHT22;9834;48.076;11.878;2023-05-28T03:45:07;7.90;99.90
19397;DHT22;9834;48.076;11.878;2023-05-28T03:47:35;7.90;99.90
19397;DHT22;9834;48.076;11.878;2023-05-28T03:50:02;7.90;99.90
19397;DHT22;9834;48.076;11.878;2023-05-28T03:52:29;7.90;99.90
19397;DHT22;9834;48.076;11.878;2023-05-28T03:54:57;8.00;99.90
19397;DHT22;9834;48.076;11.878;2023-05-28T03:57:24;8.00;99.90
19397;DHT22;9834;48.076;11.878;2023-05-28T03:59:52;8.00;99.90
19397;DHT22;9834;48.076;11.878;2023-05-28T04:02:21;8.00;99.90
19397;DHT22;9834;48.076;11.878;2023-05-28T04:04:49;8.10;99.90
19397;DHT22;9834;48.076;11.878;2023-05-28T04:07:16;8.10;99.90
19397;DHT22;9834;48.076;11.878;2023-05-28T04:09:42;8.20;99.90
19397;DHT22;9834;48.076;11.878;2023-05-28T04:12:09;8.20;99.90
19397;DHT22;9834;48.076;11.878;2023-05-28T04:14:39;8.30;99.90
19397;DHT22;9834;48.076;11.878;2023-05-28T04:17:08;8.30;99.90
19397;DHT22;9834;48.076;11.878;2023-05-28T04:19:36;8.40;99.90
19397;DHT22;9834;48.076;11.878;2023-05-28T04:22:04;8.40;99.90
19397;DHT22;9834;48.076;11.878;2023-05-28T04:24:31;8.50;99.90
19397;DHT22;9834;48.076;11.878;2023-05-28T04:26:58;8.70;99.90
19397;DHT22;9834;48.076;11.878;2023-05-28T04:29:25;8.70;99.90
19397;DHT22;9834;48.076;11.878;2023-05-28T04:31:54;8.90;99.90
19397;DHT22;9834;48.076;11.878;2023-05-28T04:34:22;8.90;99.90
19397;DHT22;9834;48.076;11.878;2023-05-28T04:36:51;9.00;99.90
19397;DHT22;9834;48.076;11.878;2023-05-28T04:39:18;9.10;99.90
19397;DHT22;9834;48.076;11.878;2023-05-28T04:41:46;9.20;99.90
19397;DHT22;9834;48.076;11.878;2023-05-28T04:44:13;9.40;99.90
19397;DHT22;9834;48.076;11.878;2023-05-28T04:46:42;9.50;99.90
19397;DHT22;9834;48.076;11.878;2023-05-28T04:49:11;9.70;99.90
19397;DHT22;9834;48.076;11.878;2023-05-28T04:51:39;9.90;99.90
19397;DHT22;9834;48.076;11.878;2023-05-28T04:54:06;10.10;99.90
19397;DHT22;9834;48.076;11.878;2023-05-28T04:56:34;10.30;99.90
19397;DHT22;9834;48.076;11.878;2023-05-28T04:59:01;10.50;99.90
19397;DHT22;9834;48.076;11.878;2023-05-28T05:01:30;10.70;99.90
19397;DHT22;9834;48.076;11.878;2023-05-28T05:03:59;10.90;99.90
19397;DHT22;9834;48.076;11.878;2023-05-28T05:06:27;11.00;99.90
19397;DHT22;9834;48.076;11.878;2023-05-28T05:08:55;11.10;99.90
19397;DHT22;9834;48.076;11.878;2023-05-28T05:11:22;11.20;99.90
19397;DHT22;9834;48.076;11.878;2023-05-28T05:13:49;11.30;99.90
19397;DHT22;9834;48.076;11.878;2023-05-28T05:16:16;11.40;99.90
19397;DHT22;9834;48.076;11.878;2023-05-28T05:18:43;11.50;99.90
19397;DHT22;9834;48.076;11.878;2023-05-28T05:21:13;11.60;99.90
19397;DHT22;9834;48.076;11.878;2023-05-28T05:23:40;11.60;99.90
19397;DHT22;9834;48.076;11.878;2023-05-28T05:26:08;11.80;99.90
19397;DHT22;9834;48.076;11.878;2023-05-28T05:28:38;11.80;99.90
19397;DHT22;9834;48.076;11.878;2023-05-28T05:31:05;11.90;99.90
19397;DHT22;9834;48.076;11.878;2023-05-28T05:33:32;12.00;99.90
19397;DHT22;9834;48.076;11.878;2023-05-28T05:35:59;12.10;99.90
19397;DHT22;9834;48.076;11.878;2023-05-28T05:38:26;12.20;99.90
19397;DHT22;9834;48.076;11.878;2023-05-28T05:40:53;12.20;99.90
19397;DHT22;9834;48.076;11.878;2023-05-28T05:43:21;12.30;99.90
19397;DHT22;9834;48.076;11.878;2023-05-28T05:45:48;12.40;99.90
19397;DHT22;9834;48.076;11.878;2023-05-28T05:48:15;12.40;99.90
19397;DHT22;9834;48.076;11.878;2023-05-28T05:50:49;12.60;99.90
19397;DHT22;9834;48.076;11.878;2023-05-28T05:53:16;12.60;99.90
19397;DHT22;9834;48.076;11.878;2023-05-28T05:55:43;12.70;99.90
19397;DHT22;9834;48.076;11.878;2023-05-28T05:58:10;12.70;99.90
19397;DHT22;9834;48.076;11.878;2023-05-28T06:00:38;12.80;99.90
19397;DHT22;9834;48.076;11.878;2023-05-28T06:03:05;12.90;99.90
19397;DHT22;9834;48.076;11.878;2023-05-28T06:05:32;13.00;99.90
19397;DHT22;9834;48.076;11.878;2023-05-28T06:07:59;13.00;99.90
19397;DHT22;9834;48.076;11.878;2023-05-28T06:10:28;13.10;99.90
19397;DHT22;9834;48.076;11.878;2023-05-28T06:12:55;13.20;99.90
19397;DHT22;9834;48.076;11.878;2023-05-28T06:15:22;13.30;99.90
19397;DHT22;9834;48.076;11.878;2023-05-28T06:17:51;13.30;99.90
19397;DHT22;9834;48.076;11.878;2023-05-28T06:20:18;13.40;99.90
19397;DHT22;9834;48.076;11.878;2023-05-28T06:22:46;13.50;99.90
19397;DHT22;9834;48.076;11.878;2023-05-28T06:25:13;13.50;99.90
19397;DHT22;9834;48.076;11.878;2023-05-28T06:27:41;13.60;99.90
19397;DHT22;9834;48.076;11.878;2023-05-28T06:30:08;13.60;99.90
19397;DHT22;9834;48.076;11.878;2023-05-28T06:32:36;13.70;99.90
19397;DHT22;9834;48.076;11.878;2023-05-28T06:35:04;13.70;99.90
19397;DHT22;9834;48.076;11.878;2023-05-28T06:37:31;13.80;99.90
19397;DHT22;9834;48.076;11.878;2023-05-28T06:39:59;13.90;99.90
19397;DHT22;9834;48.076;11.878;2023-05-28T06:42:26;13.90;99.90
19397;DHT22;9834;48.076;11.878;2023-05-28T06:44:53;14.00;99.90
19397;DHT22;9834;48.076;11.878;2023-05-28T06:47:22;14.00;99.90
19397;DHT22;9834;48.076;11.878;2023-05-28T06:49:49;14.10;99.90
19397;DHT22;9834;48.076;11.878;2023-05-28T06:52:17;14.10;99.90
19397;DHT22;9834;48.076;11.878;2023-05-28T06:54:44;14.30;99.90
19397;DHT22;9834;48.076;11.878;2023-05-28T06:57:11;14.30;99.90
19397;DHT22;9834;48.076;11.878;2023-05-28T06:59:38;14.40;99.90
19397;DHT22;9834;48.076;11.878;2023-05-28T07:02:05;14.50;99.90
19397;DHT22;9834;48.076;11.878;2023-05-28T07:04:32;14.60;99.90
19397;DHT22;9834;48.076;11.878;2023-05-28T07:06:59;14.70;99.90
19397;DHT22;9834;48.076;11.878;2023-05-28T07:09:27;14.80;99.90
19397;DHT22;9834;48.076;11.878;2023-05-28T07:11:55;14.90;99.90
19397;DHT22;9834;48.076;11.878;2023-05-28T07:14:22;15.00;99.90
19397;DHT22;9834;48.076;11.878;2023-05-28T07:16:49;15.10;99.90
19397;DHT22;9834;48.076;11.878;2023-05-28T07:19:18;15.10;98.30
19397;DHT22;9834;48.076;11.878;2023-05-28T07:21:46;15.10;98.10
19397;DHT22;9834;48.076;11.878;2023-05-28T07:24:13;15.20;99.90
19397;DHT22;9834;48.076;11.878;2023-05-28T07:26:41;15.30;97.90
19397;DHT22;9834;48.076;11.878;2023-05-28T07:29:10;15.30;98.00
19397;DHT22;9834;48.076;11.878;2023-05-28T07:31:38;15.40;98.30
19397;DHT22;9834;48.076;11.878;2023-05-28T07:34:05;15.50;96.30
19397;DHT22;9834;48.076;11.878;2023-05-28T07:36:33;15.70;96.90
19397;DHT22;9834;48.076;11.878;2023-05-28T07:39:00;15.70;94.40
19397;DHT22;9834;48.076;11.878;2023-05-28T07:41:27;15.80;94.50
19397;DHT22;9834;48.076;11.878;2023-05-28T07:43:55;15.80;94.50
19397;DHT22;9834;48.076;11.878;2023-05-28T07:46:22;15.90;96.30
19397;DHT22;9834;48.076;11.878;2023-05-28T07:48:49;16.10;96.80
19397;DHT22;9834;48.076;11.878;2023-05-28T07:51:17;16.20;95.30
19397;DHT22;9834;48.076;11.878;2023-05-28T07:53:44;16.30;93.20
19397;DHT22;9834;48.076;11.878;2023-05-28T07:56:11;16.40;93.70
19397;DHT22;9834;48.076;11.878;2023-05-28T07:58:38;16.50;93.10
19397;DHT22;9834;48.076;11.878;2023-05-28T08:01:10;16.70;93.40
19397;DHT22;9834;48.076;11.878;2023-05-28T08:03:37;16.80;92.40
19397;DHT22;9834;48.076;11.878;2023-05-28T08:06:05;17.00;90.70
19397;DHT22;9834;48.076;11.878;2023-05-28T08:08:34;17.00;90.20
19397;DHT22;9834;48.076;11.878;2023-05-28T08:11:01;17.10;91.30
19397;DHT22;9834;48.076;11.878;2023-05-28T08:13:28;17.20;90.90
19397;DHT22;9834;48.076;11.878;2023-05-28T08:15:57;17.30;90.70
19397;DHT22;9834;48.076;11.878;2023-05-28T08:18:26;17.40;90.20
19397;DHT22;9834;48.076;11.878;2023-05-28T08:20:53;17.60;85.20
19397;DHT22;9834;48.076;11.878;2023-05-28T08:23:20;17.60;90.40
19397;DHT22;9834;48.076;11.878;2023-05-28T08:25:46;17.70;88.20
19397;DHT22;9834;48.076;11.878;2023-05-28T08:28:16;17.80;86.30
19397;DHT22;9834;48.076;11.878;2023-05-28T08:30:43;17.90;84.20
19397;DHT22;9834;48.076;11.878;2023-05-28T08:33:10;18.00;83.90
19397;DHT22;9834;48.076;11.878;2023-05-28T08:35:39;18.10;82.50
19397;DHT22;9834;48.076;11.878;2023-05-28T08:38:06;18.30;84.30
19397;DHT22;9834;48.076;11.878;2023-05-28T08:40:39;18.40;82.30
19397;DHT22;9834;48.076;11.878;2023-05-28T08:43:06;18.50;78.20
19397;DHT22;9834;48.076;11.878;2023-05-28T08:45:34;18.60;76.50
19397;DHT22;9834;48.076;11.878;2023-05-28T08:48:04;18.70;74.40
19397;DHT22;9834;48.076;11.878;2023-05-28T08:50:37;18.70;72.80
19397;DHT22;9834;48.076;11.878;2023-05-28T08:53:08;18.70;72.80
19397;DHT22;9834;48.076;11.878;2023-05-28T08:55:36;18.70;72.30
19397;DHT22;9834;48.076;11.878;2023-05-28T08:58:03;18.90;75.60
19397;DHT22;9834;48.076;11.878;2023-05-28T09:00:31;19.00;73.80
19397;DHT22;9834;48.076;11.878;2023-05-28T09:02:58;19.00;70.80
19397;DHT22;9834;48.076;11.878;2023-05-28T09:05:25;19.10;74.80
19397;DHT22;9834;48.076;11.878;2023-05-28T09:07:51;19.10;74.10
19397;DHT22;9834;48.076;11.878;2023-05-28T09:10:21;19.40;69.90
19397;DHT22;9834;48.076;11.878;2023-05-28T09:12:58;19.50;70.80
19397;DHT22;9834;48.076;11.878;2023-05-28T09:15:25;19.60;69.50
19397;DHT22;9834;48.076;11.878;2023-05-28T09:17:52;19.60;62.90
19397;DHT22;9834;48.076;11.878;2023-05-28T09:20:21;19.70;66.10
19397;DHT22;9834;48.076;11.878;2023-05-28T09:22:58;19.80;63.70
19397;DHT22;9834;48.076;11.878;2023-05-28T09:25:27;19.80;60.20
19397;DHT22;9834;48.076;11.878;2023-05-28T09:27:58;19.80;61.60
19397;DHT22;9834;48.076;11.878;2023-05-28T09:30:26;19.90;64.60
19397;DHT22;9834;48.076;11.878;2023-05-28T09:33:01;19.90;61.30
19397;DHT22;9834;48.076;11.878;2023-05-28T09:35:29;20.00;67.20
19397;DHT22;9834;48.076;11.878;2023-05-28T09:38:02;20.30;62.70
19397;DHT22;9834;48.076;11.878;2023-05-28T09:40:30;20.50;62.80
19397;DHT22;9834;48.076;11.878;2023-05-28T09:42:57;20.70;63.60
19397;DHT22;9834;48.076;11.878;2023-05-28T09:45:25;20.70;60.10
19397;DHT22;9834;48.076;11.878;2023-05-28T09:47:53;20.80;59.80
19397;DHT22;9834;48.076;11.878;2023-05-28T09:50:20;20.80;59.10
19397;DHT22;9834;48.076;11.878;2023-05-28T09:52:47;21.00;58.10
19397;DHT22;9834;48.076;11.878;2023-05-28T09:55:15;21.10;58.10
19397;DHT22;9834;48.076;11.878;2023-05-28T09:57:58;21.30;56.70
19397;DHT22;9834;48.076;11.878;2023-05-28T10:00:30;21.60;58.60
19397;DHT22;9834;48.076;11.878;2023-05-28T10:03:07;21.90;60.10
19397;DHT22;9834;48.076;11.878;2023-05-28T10:05:39;22.20;57.10
19397;DHT22;9834;48.076;11.878;2023-05-28T10:08:11;22.30;52.40
19397;DHT22;9834;48.076;11.878;2023-05-28T10:10:41;22.30;54.20
19397;DHT22;9834;48.076;11.878;2023-05-28T10:13:10;22.60;53.60
19397;DHT22;9834;48.076;11.878;2023-05-28T10:15:38;23.90;52.70
19397;DHT22;9834;48.076;11.878;2023-05-28T10:18:06;25.80;47.00
19397;DHT22;9834;48.076;11.878;2023-05-28T10:20:33;27.20;45.40
19397;DHT22;9834;48.076;11.878;2023-05-28T10:23:01;28.00;42.30
19397;DHT22;9834;48.076;11.878;2023-05-28T10:25:28;28.20;41.50
19397;DHT22;9834;48.076;11.878;2023-05-28T10:27:58;28.60;42.30
19397;DHT22;9834;48.076;11.878;2023-05-28T10:30:32;28.90;39.50
19397;DHT22;9834;48.076;11.878;2023-05-28T10:32:59;29.10;39.20
19397;DHT22;9834;48.076;11.878;2023-05-28T10:35:27;29.20;37.00
19397;DHT22;9834;48.076;11.878;2023-05-28T10:38:05;29.80;36.40
19397;DHT22;9834;48.076;11.878;2023-05-28T10:40:34;30.30;39.00
19397;DHT22;9834;48.076;11.878;2023-05-28T10:43:02;30.70;37.10
19397;DHT22;9834;48.076;11.878;2023-05-28T10:45:37;30.90;35.20
19397;DHT22;9834;48.076;11.878;2023-05-28T10:48:06;31.10;36.80
19397;DHT22;9834;48.076;11.878;2023-05-28T10:50:33;31.10;38.70
19397;DHT22;9834;48.076;11.878;2023-05-28T10:53:04;31.00;35.90
19397;DHT22;9834;48.076;11.878;2023-05-28T10:55:49;30.80;36.50
19397;DHT22;9834;48.076;11.878;2023-05-28T10:58:23;30.70;36.70
19397;DHT22;9834;48.076;11.878;2023-05-28T11:00:52;31.00;36.70
19397;DHT22;9834;48.076;11.878;2023-05-28T11:03:39;31.30;35.50
19397;DHT22;9834;48.076;11.878;2023-05-28T11:06:07;31.10;35.70
19397;DHT22;9834;48.076;11.878;2023-05-28T11:08:38;31.10;36.80
19397;DHT22;9834;48.076;11.878;2023-05-28T11:11:06;31.50;35.50
19397;DHT22;9834;48.076;11.878;2023-05-28T11:13:33;32.10;34.60
19397;DHT22;9834;48.076;11.878;2023-05-28T11:16:07;32.30;34.40
19397;DHT22;9834;48.076;11.878;2023-05-28T11:18:35;32.60;34.60
19397;DHT22;9834;48.076;11.878;2023-05-28T11:21:03;33.20;33.50
19397;DHT22;9834;48.076;11.878;2023-05-28T11:23:30;32.50;33.80
19397;DHT22;9834;48.076;11.878;2023-05-28T11:25:57;32.60;35.80
19397;DHT22;9834;48.076;11.878;2023-05-28T11:28:25;32.70;34.70
19397;DHT22;9834;48.076;11.878;2023-05-28T11:30:52;32.60;34.90
19397;DHT22;9834;48.076;11.878;2023-05-28T11:33:26;32.90;34.80
19397;DHT22;9834;48.076;11.878;2023-05-28T11:35:58;32.90;33.20
19397;DHT22;9834;48.076;11.878;2023-05-28T11:38:29;33.30;32.00
19397;DHT22;9834;48.076;11.878;2023-05-28T11:40:59;33.20;33.30
19397;DHT22;9834;48.076;11.878;2023-05-28T11:43:27;33.20;31.80
19397;DHT22;9834;48.076;11.878;2023-05-28T11:45:57;33.40;31.30
19397;DHT22;9834;48.076;11.878;2023-05-28T11:48:26;34.30;30.80
19397;DHT22;9834;48.076;11.878;2023-05-28T11:51:00;34.80;32.40
19397;DHT22;9834;48.076;11.878;2023-05-28T11:53:40;35.00;28.80
19397;DHT22;9834;48.076;11.878;2023-05-28T11:56:08;34.50;29.90
19397;DHT22;9834;48.076;11.878;2023-05-28T11:58:35;35.00;31.10
19397;DHT22;9834;48.076;11.878;2023-05-28T12:01:07;34.80;28.50
19397;DHT22;9834;48.076;11.878;2023-05-28T12:03:36;34.60;31.00
19397;DHT22;9834;48.076;11.878;2023-05-28T12:06:03;34.40;30.00
19397;DHT22;9834;48.076;11.878;2023-05-28T12:08:30;35.00;31.70
19397;DHT22;9834;48.076;11.878;2023-05-28T12:11:00;35.50;28.80
19397;DHT22;9834;48.076;11.878;2023-05-28T12:13:32;34.90;29.10
19397;DHT22;9834;48.076;11.878;2023-05-28T12:16:06;34.60;30.50
19397;DHT22;9834;48.076;11.878;2023-05-28T12:18:33;35.40;29.40
19397;DHT22;9834;48.076;11.878;2023-05-28T12:21:02;35.80;29.40
19397;DHT22;9834;48.076;11.878;2023-05-28T12:23:29;35.80;27.90
19397;DHT22;9834;48.076;11.878;2023-05-28T12:25:56;36.10;28.30
19397;DHT22;9834;48.076;11.878;2023-05-28T12:28:23;36.10;27.70
19397;DHT22;9834;48.076;11.878;2023-05-28T12:30:51;36.50;28.00
19397;DHT22;9834;48.076;11.878;2023-05-28T12:33:20;35.80;28.20
19397;DHT22;9834;48.076;11.878;2023-05-28T12:35:47;35.40;31.50
19397;DHT22;9834;48.076;11.878;2023-05-28T12:38:16;36.40;28.50
19397;DHT22;9834;48.076;11.878;2023-05-28T12:40:43;36.50;29.40
19397;DHT22;9834;48.076;11.878;2023-05-28T12:43:10;36.60;27.40
19397;DHT22;9834;48.076;11.878;2023-05-28T12:45:37;36.40;28.70
19397;DHT22;9834;48.076;11.878;2023-05-28T12:48:04;36.50;27.40
19397;DHT22;9834;48.076;11.878;2023-05-28T12:50:31;36.10;27.80
19397;DHT22;9834;48.076;11.878;2023-05-28T12:53:01;37.00;27.30
19397;DHT22;9834;48.076;11.878;2023-05-28T12:55:31;37.10;25.70
19397;DHT22;9834;48.076;11.878;2023-05-28T12:57:58;37.10;26.70
19397;DHT22;9834;48.076;11.878;2023-05-28T13:00:25;36.90;25.10
19397;DHT22;9834;48.076;11.878;2023-05-28T13:02:52;36.50;27.90
19397;DHT22;9834;48.076;11.878;2023-05-28T13:05:19;36.50;27.80
19397;DHT22;9834;48.076;11.878;2023-05-28T13:07:46;36.70;27.30
19397;DHT22;9834;48.076;11.878;2023-05-28T13:10:13;36.40;26.00
19397;DHT22;9834;48.076;11.878;2023-05-28T13:12:41;36.40;26.40
19397;DHT22;9834;48.076;11.878;2023-05-28T13:15:09;36.20;26.80
19397;DHT22;9834;48.076;11.878;2023-05-28T13:17:36;35.50;28.70
19397;DHT22;9834;48.076;11.878;2023-05-28T13:20:04;35.90;27.80
19397;DHT22;9834;48.076;11.878;2023-05-28T13:22:35;36.60;26.90
19397;DHT22;9834;48.076;11.878;2023-05-28T13:25:03;36.90;26.60
19397;DHT22;9834;48.076;11.878;2023-05-28T13:27:30;37.20;26.60
19397;DHT22;9834;48.076;11.878;2023-05-28T13:29:59;37.40;26.30
19397;DHT22;9834;48.076;11.878;2023-05-28T13:32:26;37.90;26.60
19397;DHT22;9834;48.076;11.878;2023-05-28T13:34:53;36.70;27.40
19397;DHT22;9834;48.076;11.878;2023-05-28T13:37:20;37.20;26.40
19397;DHT22;9834;48.076;11.878;2023-05-28T13:39:47;37.70;26.70
19397;DHT22;9834;48.076;11.878;2023-05-28T13:42:14;38.40;25.50
19397;DHT22;9834;48.076;11.878;2023-05-28T13:44:45;38.40;24.60
19397;DHT22;9834;48.076;11.878;2023-05-28T13:47:15;37.90;25.20
19397;DHT22;9834;48.076;11.878;2023-05-28T13:49:43;38.20;25.00
19397;DHT22;9834;48.076;11.878;2023-05-28T13:52:10;38.10;24.10
19397;DHT22;9834;48.076;11.878;2023-05-28T13:54:37;37.90;25.00
19397;DHT22;9834;48.076;11.878;2023-05-28T13:57:06;38.10;24.80
19397;DHT22;9834;48.076;11.878;2023-05-28T13:59:33;38.60;24.90
19397;DHT22;9834;48.076;11.878;2023-05-28T14:02:00;38.80;25.90
19397;DHT22;9834;48.076;11.878;2023-05-28T14:04:29;38.80;24.00
19397;DHT22;9834;48.076;11.878;2023-05-28T14:06:56;38.20;23.80
19397;DHT22;9834;48.076;11.878;2023-05-28T14:09:23;37.90;26.10
19397;DHT22;9834;48.076;11.878;2023-05-28T14:11:50;38.50;25.80
19397;DHT22;9834;48.076;11.878;2023-05-28T14:14:17;39.00;25.30
19397;DHT22;9834;48.076;11.878;2023-05-28T14:16:44;38.70;23.70
19397;DHT22;9834;48.076;11.878;2023-05-28T14:19:11;38.00;25.30
19397;DHT22;9834;48.076;11.878;2023-05-28T14:21:40;37.60;26.00
19397;DHT22;9834;48.076;11.878;2023-05-28T14:24:07;37.90;24.30
19397;DHT22;9834;48.076;11.878;2023-05-28T14:26:34;38.30;24.90
19397;DHT22;9834;48.076;11.878;2023-05-28T14:29:01;38.60;24.30
19397;DHT22;9834;48.076;11.878;2023-05-28T14:31:28;38.20;23.80
19397;DHT22;9834;48.076;11.878;2023-05-28T14:33:55;39.00;25.20
19397;DHT22;9834;48.076;11.878;2023-05-28T14:36:22;39.60;23.30
19397;DHT22;9834;48.076;11.878;2023-05-28T14:38:50;39.30;23.70
19397;DHT22;9834;48.076;11.878;2023-05-28T14:41:17;39.70;25.00
19397;DHT22;9834;48.076;11.878;2023-05-28T14:43:45;39.00;25.10
19397;DHT22;9834;48.076;11.878;2023-05-28T14:46:11;38.70;25.40
19397;DHT22;9834;48.076;11.878;2023-05-28T14:48:39;38.70;24.60
19397;DHT22;9834;48.076;11.878;2023-05-28T14:51:06;38.90;24.50
19397;DHT22;9834;48.076;11.878;2023-05-28T14:53:33;39.50;23.80
19397;DHT22;9834;48.076;11.878;2023-05-28T14:56:01;38.40;22.70
19397;DHT22;9834;48.076;11.878;2023-05-28T14:58:28;38.60;24.30
19397;DHT22;9834;48.076;11.878;2023-05-28T15:00:56;39.10;22.80
19397;DHT22;9834;48.076;11.878;2023-05-28T15:03:28;38.10;23.60
19397;DHT22;9834;48.076;11.878;2023-05-28T15:05:54;37.60;24.60
19397;DHT22;9834;48.076;11.878;2023-05-28T15:08:21;38.00;25.50
19397;DHT22;9834;48.076;11.878;2023-05-28T15:10:49;38.40;24.40
19397;DHT22;9834;48.076;11.878;2023-05-28T15:13:18;39.10;23.40
19397;DHT22;9834;48.076;11.878;2023-05-28T15:15:44;39.40;23.20
19397;DHT22;9834;48.076;11.878;2023-05-28T15:18:11;39.00;24.60
19397;DHT22;9834;48.076;11.878;2023-05-28T15:20:38;38.50;22.10
19397;DHT22;9834;48.076;11.878;2023-05-28T15:23:05;38.40;24.00
19397;DHT22;9834;48.076;11.878;2023-05-28T15:25:33;38.20;22.40
19397;DHT22;9834;48.076;11.878;2023-05-28T15:28:00;38.40;23.10
19397;DHT22;9834;48.076;11.878;2023-05-28T15:30:29;38.70;24.40
19397;DHT22;9834;48.076;11.878;2023-05-28T15:32:57;38.40;23.60
19397;DHT22;9834;48.076;11.878;2023-05-28T15:35:26;37.00;24.30
19397;DHT22;9834;48.076;11.878;2023-05-28T15:37:53;36.30;24.80
19397;DHT22;9834;48.076;11.878;2023-05-28T15:40:21;36.70;24.60